sensor_id;sensor_type;location;lat;lon;timestamp;temperature;humidity
47805;DHT22;33568;45.286;9.900;2023-12-20T00:00:09;4.70;99.90
47805;DHT22;33568;45.286;9.900;2023-12-20T00:02:35;4.70;99.90
47805;DHT22;33568;45.286;9.900;2023-12-20T00:05:02;4.70;99.90
47805;DHT22;33568;45.286;9.900;2023-12-20T00:07:28;4.70;99.90
47805;DHT22;33568;45.286;9.900;2023-12-20T00:09:55;4.70;99.90
47805;DHT22;33568;45.286;9.900;2023-12-20T00:12:21;4.70;99.90
47805;DHT22;33568;45.286;9.900;2023-12-20T00:14:47;4.70;99.90
47805;DHT22;33568;45.286;9.900;2023-12-20T00:17:14;4.70;99.90
47805;DHT22;33568;45.286;9.900;2023-12-20T00:19:40;4.70;99.90
47805;DHT22;33568;45.286;9.900;2023-12-20T00:22:07;4.60;99.90
47805;DHT22;33568;45.286;9.900;2023-12-20T00:24:33;4.60;99.90
47805;DHT22;33568;45.286;9.900;2023-12-20T00:27:00;4.60;99.90
47805;DHT22;33568;45.286;9.900;2023-12-20T00:29:26;4.60;99.90
47805;DHT22;33568;45.286;9.900;2023-12-20T00:31:52;4.60;99.90
47805;DHT22;33568;45.286;9.900;2023-12-20T00:34:19;4.60;99.90
47805;DHT22;33568;45.286;9.900;2023-12-20T00:36:45;4.50;99.90
47805;DHT22;33568;45.286;9.900;2023-12-20T00:39:11;4.50;99.90
47805;DHT22;33568;45.286;9.900;2023-12-20T00:41:38;4.60;99.90
47805;DHT22;33568;45.286;9.900;2023-12-20T00:44:04;4.60;99.90
47805;DHT22;33568;45.286;9.900;2023-12-20T00:46:31;4.60;99.90
47805;DHT22;33568;45.286;9.900;2023-12-20T00:48:57;4.60;99.90
47805;DHT22;33568;45.286;9.900;2023-12-20T00:51:23;4.50;99.90
47805;DHT22;33568;45.286;9.900;2023-12-20T00:53:50;4.50;99.90
47805;DHT22;33568;45.286;9.900;2023-12-20T00:56:21;4.40;99.90
47805;DHT22;33568;45.286;9.900;2023-12-20T00:58:47;4.40;99.90
47805;DHT22;33568;45.286;9.900;2023-12-20T01:01:14;4.40;99.90
47805;DHT22;33568;45.286;9.900;2023-12-20T01:03:41;4.40;99.90
47805;DHT22;33568;45.286;9.900;2023-12-20T01:06:07;4.40;99.90
47805;DHT22;33568;45.286;9.900;2023-12-20T01:08:34;4.40;99.90
47805;DHT22;33568;45.286;9.900;2023-12-20T01:11:04;4.40;99.90
47805;DHT22;33568;45.286;9.900;2023-12-20T01:13:31;4.40;99.90
47805;DHT22;33568;45.286;9.900;2023-12-20T01:15:57;4.40;99.90
47805;DHT22;33568;45.286;9.900;2023-12-20T01:18:23;4.30;99.90
47805;DHT22;33568;45.286;9.900;2023-12-20T01:20:50;4.20;99.90
47805;DHT22;33568;45.286;9.900;2023-12-20T01:23:16;4.10;99.90
47805;DHT22;33568;45.286;9.900;2023-12-20T01:25:42;4.10;99.90
47805;DHT22;33568;45.286;9.900;2023-12-20T01:28:09;4.00;99.90
47805;DHT22;33568;45.286;9.900;2023-12-20T01:30:35;4.10;99.90
47805;DHT22;33568;45.286;9.900;2023-12-20T01:33:02;4.00;99.90
47805;DHT22;33568;45.286;9.900;2023-12-20T01:35:28;4.10;99.90
47805;DHT22;33568;45.286;9.900;2023-12-20T01:37:55;4.10;99.90
47805;DHT22;33568;45.286;9.900;2023-12-20T01:40:24;4.10;99.90
47805;DHT22;33568;45.286;9.900;2023-12-20T01:43:08;4.10;99.90
47805;DHT22;33568;45.286;9.900;2023-12-20T01:45:35;4.10;99.90
47805;DHT22;33568;45.286;9.900;2023-12-20T01:48:02;4.10;99.90
47805;DHT22;33568;45.286;9.900;2023-12-20T01:50:30;4.10;99.90
47805;DHT22;33568;45.286;9.900;2023-12-20T01:52:59;4.10;99.90
47805;DHT22;33568;45.286;9.900;2023-12-20T01:55:29;4.10;99.90
47805;DHT22;33568;45.286;9.900;2023-12-20T01:57:58;4.00;99.90
47805;DHT22;33568;45.286;9.900;2023-12-20T02:00:26;4.00;99.90
47805;DHT22;33568;45.286;9.900;2023-12-20T02:02:54;4.00;99.90
47805;DHT22;33568;45.286;9.900;2023-12-20T02:05:24;4.00;99.90
47805;DHT22;33568;45.286;9.900;2023-12-20T02:07:51;4.00;99.90
47805;DHT22;33568;45.286;9.900;2023-12-20T02:10:18;4.00;99.90
47805;DHT22;33568;45.286;9.900;2023-12-20T02:12:44;4.00;99.90
47805;DHT22;33568;45.286;9.900;2023-12-20T02:15:11;4.00;99.90
47805;DHT22;33568;45.286;9.900;2023-12-20T02:17:38;4.00;99.90
47805;DHT22;33568;45.286;9.900;2023-12-20T02:20:06;3.90;99.90
47805;DHT22;33568;45.286;9.900;2023-12-20T02:22:32;3.80;99.90
47805;DHT22;33568;45.286;9.900;2023-12-20T02:24:59;3.60;99.90
47805;DHT22;33568;45.286;9.900;2023-12-20T02:27:25;3.50;99.90
47805;DHT22;33568;45.286;9.900;2023-12-20T02:29:52;3.50;99.90
47805;DHT22;33568;45.286;9.900;2023-12-20T02:32:18;3.40;99.90
47805;DHT22;33568;45.286;9.900;2023-12-20T02:34:47;3.40;99.90
47805;DHT22;33568;45.286;9.900;2023-12-20T02:37:14;3.30;99.90
47805;DHT22;33568;45.286;9.900;2023-12-20T02:39:40;3.40;99.90
47805;DHT22;33568;45.286;9.900;2023-12-20T02:42:07;3.40;99.90
47805;DHT22;33568;45.286;9.900;2023-12-20T02:44:33;3.40;99.90
47805;DHT22;33568;45.286;9.900;2023-12-20T02:47:00;3.30;99.90
47805;DHT22;33568;45.286;9.900;2023-12-20T02:49:26;3.30;99.90
47805;DHT22;33568;45.286;9.900;2023-12-20T02:51:52;3.30;99.90
47805;DHT22;33568;45.286;9.900;2023-12-20T02:54:19;3.40;99.90
47805;DHT22;33568;45.286;9.900;2023-12-20T02:56:45;3.40;99.90
47805;DHT22;33568;45.286;9.900;2023-12-20T02:59:12;3.40;99.90
47805;DHT22;33568;45.286;9.900;2023-12-20T03:01:43;3.40;99.90
47805;DHT22;33568;45.286;9.900;2023-12-20T03:04:10;3.50;99.90
47805;DHT22;33568;45.286;9.900;2023-12-20T03:06:37;3.50;99.90
47805;DHT22;33568;45.286;9.900;2023-12-20T03:09:03;3.50;99.90
47805;DHT22;33568;45.286;9.900;2023-12-20T03:11:30;3.40;99.90
47805;DHT22;33568;45.286;9.900;2023-12-20T03:13:57;3.50;99.90
47805;DHT22;33568;45.286;9.900;2023-12-20T03:16:23;3.50;99.90
47805;DHT22;33568;45.286;9.900;2023-12-20T03:18:50;3.60;99.90
47805;DHT22;33568;45.286;9.900;2023-12-20T03:21:16;3.70;99.90
47805;DHT22;33568;45.286;9.900;2023-12-20T03:23:42;3.70;99.90
47805;DHT22;33568;45.286;9.900;2023-12-20T03:26:10;3.80;99.90
47805;DHT22;33568;45.286;9.900;2023-12-20T03:28:36;3.90;99.90
47805;DHT22;33568;45.286;9.900;2023-12-20T03:31:03;3.80;99.90
47805;DHT22;33568;45.286;9.900;2023-12-20T03:33:29;3.90;99.90
47805;DHT22;33568;45.286;9.900;2023-12-20T03:35:56;3.90;99.90
47805;DHT22;33568;45.286;9.900;2023-12-20T03:38:22;3.90;99.90
47805;DHT22;33568;45.286;9.900;2023-12-20T03:40:51;4.00;99.90
47805;DHT22;33568;45.286;9.900;2023-12-20T03:43:18;4.00;99.90
47805;DHT22;33568;45.286;9.900;2023-12-20T03:45:44;4.10;99.90
47805;DHT22;33568;45.286;9.900;2023-12-20T03:48:11;4.10;99.90
47805;DHT22;33568;45.286;9.900;2023-12-20T03:50:37;4.20;99.90
47805;DHT22;33568;45.286;9.900;2023-12-20T03:53:04;4.20;99.90
47805;DHT22;33568;45.286;9.900;2023-12-20T03:55:30;4.20;99.90
47805;DHT22;33568;45.286;9.900;2023-12-20T03:57:56;4.30;99.90
47805;DHT22;33568;45.286;9.900;2023-12-20T04:00:24;4.30;99.90
47805;DHT22;33568;45.286;9.900;2023-12-20T04:02:50;4.30;99.90
47805;DHT22;33568;45.286;9.900;2023-12-20T04:05:16;4.30;99.90
47805;DHT22;33568;45.286;9.900;2023-12-20T04:07:43;4.30;99.90
47805;DHT22;33568;45.286;9.900;2023-12-20T04:10:09;4.30;99.90
47805;DHT22;33568;45.286;9.900;2023-12-20T04:12:36;4.30;99.90
47805;DHT22;33568;45.286;9.900;2023-12-20T04:15:02;4.30;99.90
47805;DHT22;33568;45.286;9.900;2023-12-20T04:17:35;4.30;99.90
47805;DHT22;33568;45.286;9.900;2023-12-20T04:20:02;4.30;99.90
47805;DHT22;33568;45.286;9.900;2023-12-20T04:22:28;4.30;99.90
47805;DHT22;33568;45.286;9.900;2023-12-20T04:24:55;4.20;99.90
47805;DHT22;33568;45.286;9.900;2023-12-20T04:27:21;4.10;99.90
47805;DHT22;33568;45.286;9.900;2023-12-20T04:29:48;4.10;99.90
47805;DHT22;33568;45.286;9.900;2023-12-20T04:32:14;4.10;99.90
47805;DHT22;33568;45.286;9.900;2023-12-20T04:34:40;4.00;99.90
47805;DHT22;33568;45.286;9.900;2023-12-20T04:37:07;4.00;99.90
47805;DHT22;33568;45.286;9.900;2023-12-20T04:39:33;4.00;99.90
47805;DHT22;33568;45.286;9.900;2023-12-20T04:41:59;4.00;99.90
47805;DHT22;33568;45.286;9.900;2023-12-20T04:44:26;4.00;99.90
47805;DHT22;33568;45.286;9.900;2023-12-20T04:46:52;4.00;99.90
47805;DHT22;33568;45.286;9.900;2023-12-20T04:49:19;4.00;99.90
47805;DHT22;33568;45.286;9.900;2023-12-20T04:51:45;4.00;99.90
47805;DHT22;33568;45.286;9.900;2023-12-20T04:54:11;4.10;99.90
47805;DHT22;33568;45.286;9.900;2023-12-20T04:56:39;4.10;99.90
47805;DHT22;33568;45.286;9.900;2023-12-20T04:59:06;4.20;99.90
47805;DHT22;33568;45.286;9.900;2023-12-20T05:01:32;4.20;99.90
47805;DHT22;33568;45.286;9.900;2023-12-20T05:03:58;4.20;99.90
47805;DHT22;33568;45.286;9.900;2023-12-20T05:06:25;4.20;99.90
47805;DHT22;33568;45.286;9.900;2023-12-20T05:08:51;4.20;99.90
47805;DHT22;33568;45.286;9.900;2023-12-20T05:11:18;4.30;99.90
47805;DHT22;33568;45.286;9.900;2023-12-20T05:13:44;4.30;99.90
47805;DHT22;33568;45.286;9.900;2023-12-20T05:16:10;4.30;99.90
47805;DHT22;33568;45.286;9.900;2023-12-20T05:18:37;4.40;99.90
47805;DHT22;33568;45.286;9.900;2023-12-20T05:21:03;4.40;99.90
47805;DHT22;33568;45.286;9.900;2023-12-20T05:23:30;4.40;99.90
47805;DHT22;33568;45.286;9.900;2023-12-20T05:25:56;4.50;99.90
47805;DHT22;33568;45.286;9.900;2023-12-20T05:28:22;4.50;99.90
47805;DHT22;33568;45.286;9.900;2023-12-20T05:30:49;4.50;99.90
47805;DHT22;33568;45.286;9.900;2023-12-20T05:33:15;4.40;99.90
47805;DHT22;33568;45.286;9.900;2023-12-20T05:35:41;4.40;99.90
47805;DHT22;33568;45.286;9.900;2023-12-20T05:38:08;4.40;99.90
47805;DHT22;33568;45.286;9.900;2023-12-20T05:40:34;4.40;99.90
47805;DHT22;33568;45.286;9.900;2023-12-20T05:43:01;4.40;99.90
47805;DHT22;33568;45.286;9.900;2023-12-20T05:45:27;4.40;99.90
47805;DHT22;33568;45.286;9.900;2023-12-20T05:47:53;4.40;99.90
47805;DHT22;33568;45.286;9.900;2023-12-20T05:50:20;4.40;99.90
47805;DHT22;33568;45.286;9.900;2023-12-20T05:52:47;4.40;99.90
47805;DHT22;33568;45.286;9.900;2023-12-20T05:55:13;4.40;99.90
47805;DHT22;33568;45.286;9.900;2023-12-20T05:57:40;4.50;99.90
47805;DHT22;33568;45.286;9.900;2023-12-20T06:00:08;4.50;99.90
47805;DHT22;33568;45.286;9.900;2023-12-20T06:02:41;4.50;99.90
47805;DHT22;33568;45.286;9.900;2023-12-20T06:05:08;4.50;99.90
47805;DHT22;33568;45.286;9.900;2023-12-20T06:07:34;4.40;99.90
47805;DHT22;33568;45.286;9.900;2023-12-20T06:10:00;4.40;99.90
47805;DHT22;33568;45.286;9.900;2023-12-20T06:12:27;4.40;99.90
47805;DHT22;33568;45.286;9.900;2023-12-20T06:14:54;4.50;99.90
47805;DHT22;33568;45.286;9.900;2023-12-20T06:17:21;4.50;99.90
47805;DHT22;33568;45.286;9.900;2023-12-20T06:19:47;4.50;99.90
47805;DHT22;33568;45.286;9.900;2023-12-20T06:22:17;4.50;99.90
47805;DHT22;33568;45.286;9.900;2023-12-20T06:24:43;4.50;99.90
47805;DHT22;33568;45.286;9.900;2023-12-20T06:27:10;4.50;99.90
47805;DHT22;33568;45.286;9.900;2023-12-20T06:29:36;4.50;99.90
47805;DHT22;33568;45.286;9.900;2023-12-20T06:32:03;4.50;99.90
47805;DHT22;33568;45.286;9.900;2023-12-20T06:34:29;4.40;99.90
47805;DHT22;33568;45.286;9.900;2023-12-20T06:36:56;4.40;99.90
47805;DHT22;33568;45.286;9.900;2023-12-20T06:39:22;4.40;99.90
47805;DHT22;33568;45.286;9.900;2023-12-20T06:41:49;4.40;99.90
47805;DHT22;33568;45.286;9.900;2023-12-20T06:44:15;4.40;99.90
47805;DHT22;33568;45.286;9.900;2023-12-20T06:46:42;4.50;99.90
47805;DHT22;33568;45.286;9.900;2023-12-20T06:49:09;4.50;99.90
47805;DHT22;33568;45.286;9.900;2023-12-20T06:51:35;4.50;99.90
47805;DHT22;33568;45.286;9.900;2023-12-20T06:54:02;4.60;99.90
47805;DHT22;33568;45.286;9.900;2023-12-20T06:56:28;4.60;99.90
47805;DHT22;33568;45.286;9.900;2023-12-20T06:58:55;4.70;99.90
47805;DHT22;33568;45.286;9.900;2023-12-20T07:01:21;4.60;99.90
47805;DHT22;33568;45.286;9.900;2023-12-20T07:03:48;4.70;99.90
47805;DHT22;33568;45.286;9.900;2023-12-20T07:06:15;4.70;99.90
47805;DHT22;33568;45.286;9.900;2023-12-20T07:08:42;4.80;99.90
47805;DHT22;33568;45.286;9.900;2023-12-20T07:11:09;4.80;99.90
47805;DHT22;33568;45.286;9.900;2023-12-20T07:13:35;4.80;99.90
47805;DHT22;33568;45.286;9.900;2023-12-20T07:16:02;4.80;99.90
47805;DHT22;33568;45.286;9.900;2023-12-20T07:18:29;4.90;99.90
47805;DHT22;33568;45.286;9.900;2023-12-20T07:20:55;4.90;99.90
47805;DHT22;33568;45.286;9.900;2023-12-20T07:23:21;4.90;99.90
47805;DHT22;33568;45.286;9.900;2023-12-20T07:25:48;4.90;99.90
47805;DHT22;33568;45.286;9.900;2023-12-20T07:28:14;4.90;99.90
47805;DHT22;33568;45.286;9.900;2023-12-20T07:30:41;4.90;99.90
47805;DHT22;33568;45.286;9.900;2023-12-20T07:33:07;4.90;99.90
47805;DHT22;33568;45.286;9.900;2023-12-20T07:35:35;4.90;99.90
47805;DHT22;33568;45.286;9.900;2023-12-20T07:38:01;4.90;99.90
47805;DHT22;33568;45.286;9.900;2023-12-20T07:40:28;4.90;99.90
47805;DHT22;33568;45.286;9.900;2023-12-20T07:42:55;5.00;99.90
47805;DHT22;33568;45.286;9.900;2023-12-20T07:45:21;5.00;99.90
47805;DHT22;33568;45.286;9.900;2023-12-20T07:47:47;5.00;99.90
47805;DHT22;33568;45.286;9.900;2023-12-20T07:50:15;5.10;99.90
47805;DHT22;33568;45.286;9.900;2023-12-20T07:52:41;5.10;99.90
47805;DHT22;33568;45.286;9.900;2023-12-20T07:55:08;5.10;99.90
47805;DHT22;33568;45.286;9.900;2023-12-20T07:57:34;5.20;99.90
47805;DHT22;33568;45.286;9.900;2023-12-20T08:00:00;5.20;99.90
47805;DHT22;33568;45.286;9.900;2023-12-20T08:02:27;5.20;99.90
47805;DHT22;33568;45.286;9.900;2023-12-20T08:04:53;5.20;99.90
47805;DHT22;33568;45.286;9.900;2023-12-20T08:07:19;5.30;99.90
47805;DHT22;33568;45.286;9.900;2023-12-20T08:09:46;5.30;99.90
47805;DHT22;33568;45.286;9.900;2023-12-20T08:12:12;5.30;99.90
47805;DHT22;33568;45.286;9.900;2023-12-20T08:14:39;5.30;99.90
47805;DHT22;33568;45.286;9.900;2023-12-20T08:17:05;5.30;99.90
47805;DHT22;33568;45.286;9.900;2023-12-20T08:19:31;5.30;99.90
47805;DHT22;33568;45.286;9.900;2023-12-20T08:21:58;5.30;99.90
47805;DHT22;33568;45.286;9.900;2023-12-20T08:24:24;5.30;99.90
47805;DHT22;33568;45.286;9.900;2023-12-20T08:26:50;5.30;99.90
47805;DHT22;33568;45.286;9.900;2023-12-20T08:29:17;5.30;99.90
47805;DHT22;33568;45.286;9.900;2023-12-20T08:31:43;5.30;99.90
47805;DHT22;33568;45.286;9.900;2023-12-20T08:34:10;5.30;99.90
47805;DHT22;33568;45.286;9.900;2023-12-20T08:36:38;5.40;99.90
47805;DHT22;33568;45.286;9.900;2023-12-20T08:39:04;5.40;99.90
47805;DHT22;33568;45.286;9.900;2023-12-20T08:41:34;5.40;99.90
47805;DHT22;33568;45.286;9.900;2023-12-20T08:44:01;5.50;99.90
47805;DHT22;33568;45.286;9.900;2023-12-20T08:46:27;5.50;99.90
47805;DHT22;33568;45.286;9.900;2023-12-20T08:48:53;5.50;99.90
47805;DHT22;33568;45.286;9.900;2023-12-20T08:51:20;5.50;99.90
47805;DHT22;33568;45.286;9.900;2023-12-20T08:53:47;5.50;99.90
47805;DHT22;33568;45.286;9.900;2023-12-20T08:56:13;5.50;99.90
47805;DHT22;33568;45.286;9.900;2023-12-20T08:58:40;5.40;99.90
47805;DHT22;33568;45.286;9.900;2023-12-20T09:01:06;5.40;99.90
47805;DHT22;33568;45.286;9.900;2023-12-20T09:03:33;5.40;99.90
47805;DHT22;33568;45.286;9.900;2023-12-20T09:06:00;5.50;99.90
47805;DHT22;33568;45.286;9.900;2023-12-20T09:08:26;5.50;99.90
47805;DHT22;33568;45.286;9.900;2023-12-20T09:10:52;5.50;99.90
47805;DHT22;33568;45.286;9.900;2023-12-20T09:13:19;5.50;99.90
47805;DHT22;33568;45.286;9.900;2023-12-20T09:15:46;5.50;99.90
47805;DHT22;33568;45.286;9.900;2023-12-20T09:18:13;5.60;99.90
47805;DHT22;33568;45.286;9.900;2023-12-20T09:20:39;5.60;99.90
47805;DHT22;33568;45.286;9.900;2023-12-20T09:23:05;5.70;99.90
47805;DHT22;33568;45.286;9.900;2023-12-20T09:25:32;5.80;99.90
47805;DHT22;33568;45.286;9.900;2023-12-20T09:27:58;5.90;99.90
47805;DHT22;33568;45.286;9.900;2023-12-20T09:30:24;5.90;99.90
47805;DHT22;33568;45.286;9.900;2023-12-20T09:32:51;5.90;99.90
47805;DHT22;33568;45.286;9.900;2023-12-20T09:35:17;5.90;99.90
47805;DHT22;33568;45.286;9.900;2023-12-20T09:37:44;5.90;99.90
47805;DHT22;33568;45.286;9.900;2023-12-20T09:40:13;6.00;99.90
47805;DHT22;33568;45.286;9.900;2023-12-20T09:43:04;6.00;99.90
47805;DHT22;33568;45.286;9.900;2023-12-20T09:45:35;6.10;99.90
47805;DHT22;33568;45.286;9.900;2023-12-20T09:48:01;6.10;99.90
47805;DHT22;33568;45.286;9.900;2023-12-20T09:50:30;6.20;99.90
47805;DHT22;33568;45.286;9.900;2023-12-20T09:53:01;6.30;99.90
47805;DHT22;33568;45.286;9.900;2023-12-20T09:55:30;6.40;99.90
47805;DHT22;33568;45.286;9.900;2023-12-20T09:57:59;6.50;99.90
47805;DHT22;33568;45.286;9.900;2023-12-20T10:00:26;6.50;99.90
47805;DHT22;33568;45.286;9.900;2023-12-20T10:02:59;6.50;99.90
47805;DHT22;33568;45.286;9.900;2023-12-20T10:07:53;6.50;99.90
47805;DHT22;33568;45.286;9.900;2023-12-20T10:10:20;6.50;99.90
47805;DHT22;33568;45.286;9.900;2023-12-20T10:13:00;6.50;99.90
47805;DHT22;33568;45.286;9.900;2023-12-20T10:15:27;6.50;99.90
47805;DHT22;33568;45.286;9.900;2023-12-20T10:17:53;6.60;99.90
47805;DHT22;33568;45.286;9.900;2023-12-20T10:20:21;6.70;99.90
47805;DHT22;33568;45.286;9.900;2023-12-20T10:22:47;6.80;99.90
47805;DHT22;33568;45.286;9.900;2023-12-20T10:25:15;6.80;99.90
47805;DHT22;33568;45.286;9.900;2023-12-20T10:27:41;6.90;99.90
47805;DHT22;33568;45.286;9.900;2023-12-20T10:30:08;6.90;99.90
47805;DHT22;33568;45.286;9.900;2023-12-20T10:32:35;7.00;99.90
47805;DHT22;33568;45.286;9.900;2023-12-20T10:35:01;7.10;99.90
47805;DHT22;33568;45.286;9.900;2023-12-20T10:37:28;7.20;99.90
47805;DHT22;33568;45.286;9.900;2023-12-20T10:39:55;7.20;99.90
47805;DHT22;33568;45.286;9.900;2023-12-20T10:42:27;7.30;99.90
47805;DHT22;33568;45.286;9.900;2023-12-20T10:44:55;7.40;99.90
47805;DHT22;33568;45.286;9.900;2023-12-20T10:47:21;7.50;99.90
47805;DHT22;33568;45.286;9.900;2023-12-20T10:49:49;7.40;99.90
47805;DHT22;33568;45.286;9.900;2023-12-20T10:52:18;7.50;99.90
47805;DHT22;33568;45.286;9.900;2023-12-20T10:54:45;7.60;99.90
47805;DHT22;33568;45.286;9.900;2023-12-20T10:57:11;7.70;99.90
47805;DHT22;33568;45.286;9.900;2023-12-20T10:59:39;7.70;99.90
47805;DHT22;33568;45.286;9.900;2023-12-20T11:02:06;7.80;99.90
47805;DHT22;33568;45.286;9.900;2023-12-20T11:04:47;7.80;99.90
47805;DHT22;33568;45.286;9.900;2023-12-20T11:07:32;7.90;99.90
47805;DHT22;33568;45.286;9.900;2023-12-20T11:10:16;8.00;99.90
47805;DHT22;33568;45.286;9.900;2023-12-20T11:13:10;8.20;99.90
47805;DHT22;33568;45.286;9.900;2023-12-20T11:15:38;8.30;99.90
47805;DHT22;33568;45.286;9.900;2023-12-20T11:18:05;8.30;99.90
47805;DHT22;33568;45.286;9.900;2023-12-20T11:20:40;8.40;99.90
47805;DHT22;33568;45.286;9.900;2023-12-20T11:23:08;8.70;99.90
47805;DHT22;33568;45.286;9.900;2023-12-20T11:25:55;8.80;99.90
47805;DHT22;33568;45.286;9.900;2023-12-20T11:28:25;8.70;99.90
47805;DHT22;33568;45.286;9.900;2023-12-20T11:30:56;8.50;99.90
47805;DHT22;33568;45.286;9.900;2023-12-20T11:33:27;8.60;99.90
47805;DHT22;33568;45.286;9.900;2023-12-20T11:35:56;8.60;99.90
47805;DHT22;33568;45.286;9.900;2023-12-20T11:38:23;8.70;99.90
47805;DHT22;33568;45.286;9.900;2023-12-20T11:40:50;8.80;99.90
47805;DHT22;33568;45.286;9.900;2023-12-20T11:43:39;9.20;99.90
47805;DHT22;33568;45.286;9.900;2023-12-20T11:46:06;9.70;99.90
47805;DHT22;33568;45.286;9.900;2023-12-20T11:48:35;10.50;99.90
47805;DHT22;33568;45.286;9.900;2023-12-20T11:51:02;11.60;98.20
47805;DHT22;33568;45.286;9.900;2023-12-20T11:53:30;12.30;96.90
47805;DHT22;33568;45.286;9.900;2023-12-20T11:55:58;12.50;95.90
47805;DHT22;33568;45.286;9.900;2023-12-20T11:58:25;12.40;96.00
47805;DHT22;33568;45.286;9.900;2023-12-20T12:00:51;13.10;95.40
47805;DHT22;33568;45.286;9.900;2023-12-20T12:03:17;14.70;94.20
47805;DHT22;33568;45.286;9.900;2023-12-20T12:05:46;16.60;91.70
47805;DHT22;33568;45.286;9.900;2023-12-20T12:08:13;18.30;82.20
47805;DHT22;33568;45.286;9.900;2023-12-20T12:10:39;18.90;83.90
47805;DHT22;33568;45.286;9.900;2023-12-20T12:13:05;18.20;82.60
47805;DHT22;33568;45.286;9.900;2023-12-20T12:15:32;17.00;76.60
47805;DHT22;33568;45.286;9.900;2023-12-20T12:17:58;16.00;88.20
47805;DHT22;33568;45.286;9.900;2023-12-20T12:20:26;15.00;90.00
47805;DHT22;33568;45.286;9.900;2023-12-20T12:23:00;14.20;90.90
47805;DHT22;33568;45.286;9.900;2023-12-20T12:25:28;13.60;91.50
47805;DHT22;33568;45.286;9.900;2023-12-20T12:27:56;13.30;92.30
47805;DHT22;33568;45.286;9.900;2023-12-20T12:30:23;13.20;92.70
47805;DHT22;33568;45.286;9.900;2023-12-20T12:32:51;12.90;92.80
47805;DHT22;33568;45.286;9.900;2023-12-20T12:35:19;12.70;92.90
47805;DHT22;33568;45.286;9.900;2023-12-20T12:37:46;12.40;93.20
47805;DHT22;33568;45.286;9.900;2023-12-20T12:40:13;12.20;93.60
47805;DHT22;33568;45.286;9.900;2023-12-20T12:42:41;12.00;93.10
47805;DHT22;33568;45.286;9.900;2023-12-20T12:45:08;12.00;94.10
47805;DHT22;33568;45.286;9.900;2023-12-20T12:47:35;11.90;94.10
47805;DHT22;33568;45.286;9.900;2023-12-20T12:50:02;11.70;94.20
47805;DHT22;33568;45.286;9.900;2023-12-20T12:52:30;11.60;94.40
47805;DHT22;33568;45.286;9.900;2023-12-20T12:54:56;11.60;94.50
47805;DHT22;33568;45.286;9.900;2023-12-20T12:57:23;11.60;94.60
47805;DHT22;33568;45.286;9.900;2023-12-20T12:59:50;11.60;94.60
47805;DHT22;33568;45.286;9.900;2023-12-20T13:02:16;11.60;94.70
47805;DHT22;33568;45.286;9.900;2023-12-20T13:04:43;11.60;94.90
47805;DHT22;33568;45.286;9.900;2023-12-20T13:07:10;11.60;94.90
47805;DHT22;33568;45.286;9.900;2023-12-20T13:09:39;11.50;94.80
47805;DHT22;33568;45.286;9.900;2023-12-20T13:12:06;11.60;94.90
47805;DHT22;33568;45.286;9.900;2023-12-20T13:14:34;11.50;95.00
47805;DHT22;33568;45.286;9.900;2023-12-20T13:17:04;11.40;94.90
47805;DHT22;33568;45.286;9.900;2023-12-20T13:19:30;11.40;94.90
47805;DHT22;33568;45.286;9.900;2023-12-20T13:21:57;11.40;95.00
47805;DHT22;33568;45.286;9.900;2023-12-20T13:24:24;11.30;94.50
47805;DHT22;33568;45.286;9.900;2023-12-20T13:26:50;11.30;95.20
47805;DHT22;33568;45.286;9.900;2023-12-20T13:29:18;11.20;95.10
47805;DHT22;33568;45.286;9.900;2023-12-20T13:31:45;11.20;95.10
47805;DHT22;33568;45.286;9.900;2023-12-20T13:34:11;11.10;95.10
47805;DHT22;33568;45.286;9.900;2023-12-20T13:36:38;11.00;95.10
47805;DHT22;33568;45.286;9.900;2023-12-20T13:39:05;10.90;95.30
47805;DHT22;33568;45.286;9.900;2023-12-20T13:41:31;10.80;95.30
47805;DHT22;33568;45.286;9.900;2023-12-20T13:43:58;10.80;95.50
47805;DHT22;33568;45.286;9.900;2023-12-20T13:46:24;10.80;95.50
47805;DHT22;33568;45.286;9.900;2023-12-20T13:48:51;10.80;95.50
47805;DHT22;33568;45.286;9.900;2023-12-20T13:51:17;10.80;95.60
47805;DHT22;33568;45.286;9.900;2023-12-20T13:53:44;10.70;95.70
47805;DHT22;33568;45.286;9.900;2023-12-20T13:56:10;10.70;95.80
47805;DHT22;33568;45.286;9.900;2023-12-20T13:58:36;10.70;96.00
47805;DHT22;33568;45.286;9.900;2023-12-20T14:01:03;10.70;96.10
47805;DHT22;33568;45.286;9.900;2023-12-20T14:03:29;10.60;96.20
47805;DHT22;33568;45.286;9.900;2023-12-20T14:05:57;10.60;96.40
47805;DHT22;33568;45.286;9.900;2023-12-20T14:08:23;10.60;96.40
47805;DHT22;33568;45.286;9.900;2023-12-20T14:10:50;10.50;96.40
47805;DHT22;33568;45.286;9.900;2023-12-20T14:13:16;10.60;96.60
47805;DHT22;33568;45.286;9.900;2023-12-20T14:15:42;10.60;96.60
47805;DHT22;33568;45.286;9.900;2023-12-20T14:18:09;10.60;96.50
47805;DHT22;33568;45.286;9.900;2023-12-20T14:20:36;10.60;96.50
47805;DHT22;33568;45.286;9.900;2023-12-20T14:23:03;10.60;96.60
47805;DHT22;33568;45.286;9.900;2023-12-20T14:25:29;10.50;96.50
47805;DHT22;33568;45.286;9.900;2023-12-20T14:27:57;10.50;96.70
47805;DHT22;33568;45.286;9.900;2023-12-20T14:30:23;10.50;96.60
47805;DHT22;33568;45.286;9.900;2023-12-20T14:32:50;10.50;96.10
47805;DHT22;33568;45.286;9.900;2023-12-20T14:35:16;10.50;96.60
47805;DHT22;33568;45.286;9.900;2023-12-20T14:37:43;10.40;96.20
47805;DHT22;33568;45.286;9.900;2023-12-20T14:40:09;10.40;96.70
47805;DHT22;33568;45.286;9.900;2023-12-20T14:42:42;10.30;96.50
47805;DHT22;33568;45.286;9.900;2023-12-20T14:45:09;10.30;96.90
47805;DHT22;33568;45.286;9.900;2023-12-20T14:47:36;10.20;97.00
47805;DHT22;33568;45.286;9.900;2023-12-20T14:50:03;10.20;97.10
47805;DHT22;33568;45.286;9.900;2023-12-20T14:52:31;10.20;97.30
47805;DHT22;33568;45.286;9.900;2023-12-20T14:54:58;10.10;97.50
47805;DHT22;33568;45.286;9.900;2023-12-20T14:57:24;10.10;97.60
47805;DHT22;33568;45.286;9.900;2023-12-20T14:59:51;10.00;97.70
47805;DHT22;33568;45.286;9.900;2023-12-20T15:02:17;9.90;97.80
47805;DHT22;33568;45.286;9.900;2023-12-20T15:04:43;9.90;97.90
47805;DHT22;33568;45.286;9.900;2023-12-20T15:07:10;9.70;98.00
47805;DHT22;33568;45.286;9.900;2023-12-20T15:09:36;9.70;98.20
47805;DHT22;33568;45.286;9.900;2023-12-20T15:12:03;9.60;98.30
47805;DHT22;33568;45.286;9.900;2023-12-20T15:14:29;9.50;98.50
47805;DHT22;33568;45.286;9.900;2023-12-20T15:16:55;9.50;98.60
47805;DHT22;33568;45.286;9.900;2023-12-20T15:19:22;9.40;98.60
47805;DHT22;33568;45.286;9.900;2023-12-20T15:21:49;9.40;98.70
47805;DHT22;33568;45.286;9.900;2023-12-20T15:24:16;9.30;98.80
47805;DHT22;33568;45.286;9.900;2023-12-20T15:26:46;9.20;99.00
47805;DHT22;33568;45.286;9.900;2023-12-20T15:29:13;9.20;99.10
47805;DHT22;33568;45.286;9.900;2023-12-20T15:31:44;9.10;99.20
47805;DHT22;33568;45.286;9.900;2023-12-20T15:34:11;9.10;99.30
47805;DHT22;33568;45.286;9.900;2023-12-20T15:36:39;8.90;99.40
47805;DHT22;33568;45.286;9.900;2023-12-20T15:39:06;8.90;99.50
47805;DHT22;33568;45.286;9.900;2023-12-20T15:41:35;8.90;99.60
47805;DHT22;33568;45.286;9.900;2023-12-20T15:44:02;8.80;99.70